Terminal Aerodrome Forecast
Issued by NWS

Home | Current Version | Previous Version | Text Only | Print | Product List | Glossary On
Versions: 1 2 3 4 5 6 7 8 9 10 11 12 13 14 15 16 17 18 19 20 21 22 23 24
000
FTUS41 KRNK 301344 AAA
TAFLWB
TAF AMD
KLWB 301344Z 3014/0112 03006KT 4SM RA OVC012
      TEMPO 3014/3016 1 1/2SM +TSRA OVC009CB
     FM301600 11006KT P6SM VCSH SCT007 OVC025
     FM301900 14003KT 5SM TSRA BR OVC015CB
     FM010000 00000KT P6SM SCT015 BKN035
     FM010600 13003KT P6SM BKN015=

USA.gov is the U.S. government's official web portal to all federal, state and local government web resources and services.